createdAt,value
2019-05-17T00:00:07.440Z,51.93
2019-05-17T00:02:37.389Z,50.47
2019-05-17T00:05:06.865Z,47.20
2019-05-17T00:07:38.181Z,50.77
2019-05-17T00:10:06.896Z,59.27
2019-05-17T00:12:36.753Z,60.37
2019-05-17T00:15:07.183Z,59.33
2019-05-17T00:17:37.744Z,59.30
2019-05-17T00:20:06.394Z,54.73
2019-05-17T00:22:36.597Z,59.37
2019-05-17T00:25:07.474Z,70.17
2019-05-17T00:27:36.771Z,67.20
2019-05-17T00:30:06.732Z,58.80
2019-05-17T00:32:36.865Z,54.03
2019-05-17T00:35:07.266Z,62.20
2019-05-17T00:37:37.269Z,61.53
2019-05-17T00:40:07.312Z,59.67
2019-05-17T00:42:37.217Z,75.60
2019-05-17T00:45:07.212Z,75.63
2019-05-17T00:47:37.453Z,67.67
2019-05-17T00:50:07.462Z,79.20
2019-05-17T00:52:36.904Z,75.40
2019-05-17T00:55:06.891Z,65.93
2019-05-17T00:57:36.939Z,77.70
2019-05-17T01:00:09.297Z,82.07
2019-05-17T01:02:37.413Z,78.07
2019-05-17T01:05:06.866Z,92.00
2019-05-17T01:07:37.748Z,76.03
2019-05-17T01:10:07.072Z,77.87
2019-05-17T01:12:36.573Z,83.17
2019-05-17T01:15:07.420Z,81.47
2019-05-17T01:17:36.564Z,79.77
2019-05-17T01:20:07.908Z,77.83
2019-05-17T01:22:36.715Z,88.57
2019-05-17T01:25:06.450Z,84.00
2019-05-17T01:27:35.352Z,81.27
2019-05-17T01:30:06.684Z,74.97
2019-05-17T01:32:37.191Z,75.13
2019-05-17T01:35:07.118Z,72.83
2019-05-17T01:37:36.952Z,91.43
2019-05-17T01:40:06.730Z,96.93
2019-05-17T01:42:37.294Z,83.40
2019-05-17T01:45:07.292Z,91.33
2019-05-17T01:47:36.909Z,83.10
2019-05-17T01:50:06.901Z,100.30
2019-05-17T01:52:36.981Z,97.17
2019-05-17T01:55:06.713Z,95.30
2019-05-17T01:57:37.106Z,94.03
2019-05-17T02:00:06.556Z,83.97
2019-05-17T02:02:38.981Z,95.53
2019-05-17T02:05:07.379Z,96.40
2019-05-17T02:07:37.310Z,94.87
2019-05-17T02:10:07.446Z,102.63
2019-05-17T02:12:37.198Z,90.03
2019-05-17T02:15:07.433Z,99.17
2019-05-17T02:17:37.380Z,100.33
2019-05-17T02:20:06.462Z,96.70
2019-05-17T02:22:36.726Z,103.30
2019-05-17T02:25:07.260Z,97.50
2019-05-17T02:27:40.861Z,104.77
2019-05-17T02:30:13.647Z,107.40
2019-05-17T02:32:42.752Z,98.00
2019-05-17T02:35:13.756Z,96.20
2019-05-17T02:37:43.164Z,91.00
2019-05-17T02:40:10.084Z,83.77
2019-05-17T02:42:38.226Z,104.87
2019-05-17T02:45:06.713Z,100.23
2019-05-17T02:47:34.850Z,87.57
2019-05-17T02:50:05.545Z,87.80
2019-05-17T02:52:33.498Z,85.03
2019-05-17T02:55:04.056Z,87.23
2019-05-17T02:57:34.428Z,96.20
2019-05-17T03:00:04.314Z,85.90
2019-05-17T03:02:34.060Z,86.23
2019-05-17T03:05:03.976Z,83.87
2019-05-17T03:07:32.587Z,77.07
2019-05-17T03:10:13.646Z,73.37
2019-05-17T03:12:32.995Z,68.63
2019-05-17T03:15:04.004Z,63.97
2019-05-17T03:17:33.531Z,65.77
2019-05-17T03:20:04.015Z,58.73
2019-05-17T03:22:33.218Z,59.57
2019-05-17T03:25:03.341Z,55.77
2019-05-17T03:27:33.493Z,56.77
2019-05-17T03:30:04.082Z,59.03
2019-05-17T03:32:36.066Z,51.47
2019-05-17T03:35:06.062Z,52.63
2019-05-17T03:37:36.721Z,51.83
2019-05-17T03:40:04.675Z,54.60
2019-05-17T03:42:32.857Z,54.83
2019-05-17T03:45:02.840Z,49.40
2019-05-17T03:47:33.186Z,53.33
2019-05-17T03:50:03.059Z,50.57
2019-05-17T03:52:33.095Z,53.07
2019-05-17T03:55:03.552Z,52.83
2019-05-17T03:57:32.122Z,45.93
2019-05-17T04:00:03.519Z,57.90
2019-05-17T04:02:32.458Z,50.70
2019-05-17T04:04:59.460Z,44.47
2019-05-17T04:07:27.579Z,44.53
2019-05-17T04:09:55.718Z,49.67
2019-05-17T04:12:23.834Z,44.07
2019-05-17T04:14:53.377Z,42.67
2019-05-17T04:17:22.726Z,38.30
2019-05-17T04:19:53.370Z,41.67
2019-05-17T04:22:23.629Z,34.23
2019-05-17T04:24:52.516Z,36.37
2019-05-17T04:27:22.966Z,30.93
2019-05-17T04:29:53.278Z,27.03
2019-05-17T04:32:23.225Z,30.63
2019-05-17T04:34:52.596Z,26.07
2019-05-17T04:37:22.830Z,22.57
2019-05-17T04:39:52.500Z,27.00
2019-05-17T04:42:22.739Z,23.30
2019-05-17T04:44:52.708Z,26.27
2019-05-17T04:47:23.004Z,21.30
2019-05-17T04:49:53.324Z,26.90
2019-05-17T04:52:22.544Z,27.33
2019-05-17T04:54:53.365Z,24.97
2019-05-17T04:57:19.534Z,24.40
2019-05-17T04:59:47.905Z,26.37
2019-05-17T05:02:16.095Z,23.17
2019-05-17T05:04:44.227Z,24.63
2019-05-17T05:07:13.695Z,25.40
2019-05-17T05:09:42.974Z,24.47
2019-05-17T05:12:12.513Z,24.57
2019-05-17T05:14:43.129Z,21.60
2019-05-17T05:17:12.811Z,22.87
2019-05-17T05:19:42.223Z,21.03
2019-05-17T05:22:13.471Z,21.97
2019-05-17T05:24:42.353Z,25.03
2019-05-17T05:27:11.626Z,22.90
2019-05-17T05:29:41.945Z,22.33
2019-05-17T05:32:11.811Z,21.47
2019-05-17T05:34:42.966Z,24.37
2019-05-17T05:37:12.531Z,19.83
2019-05-17T05:39:41.463Z,21.57
2019-05-17T05:42:11.609Z,21.80
2019-05-17T05:44:41.441Z,23.40
2019-05-17T05:47:11.473Z,21.17
2019-05-17T05:49:39.296Z,23.67
2019-05-17T05:52:07.766Z,23.23
2019-05-17T05:54:35.977Z,20.90
2019-05-17T05:57:04.177Z,20.87
2019-05-17T05:59:35.283Z,21.97
2019-05-17T06:02:02.217Z,21.97
2019-05-17T06:04:31.803Z,20.73
2019-05-17T06:07:00.153Z,23.47
2019-05-17T06:09:28.284Z,19.20
2019-05-17T06:11:56.400Z,16.33
2019-05-17T06:14:24.547Z,18.00
2019-05-17T06:16:52.670Z,19.77
2019-05-17T06:19:22.389Z,18.43
2019-05-17T06:21:52.015Z,20.07
2019-05-17T06:24:22.522Z,21.67
2019-05-17T06:26:52.534Z,19.73
2019-05-17T06:29:22.178Z,18.83
2019-05-17T06:31:51.852Z,21.10
2019-05-17T06:34:22.180Z,19.57
2019-05-17T06:36:52.629Z,20.20
2019-05-17T06:39:22.421Z,19.03
2019-05-17T06:41:52.108Z,15.30
2019-05-17T06:44:21.649Z,16.57
2019-05-17T06:46:51.909Z,16.83
2019-05-17T06:49:22.268Z,14.37
2019-05-17T06:51:51.635Z,19.43
2019-05-17T06:54:21.593Z,14.10
2019-05-17T06:56:49.831Z,15.03
2019-05-17T06:59:17.971Z,16.80
2019-05-17T07:01:46.155Z,14.23
2019-05-17T07:04:14.297Z,13.10
2019-05-17T07:06:42.404Z,11.60
2019-05-17T07:09:10.513Z,14.97
2019-05-17T07:11:39.795Z,13.07
2019-05-17T07:14:09.437Z,10.47
2019-05-17T07:16:39.651Z,13.03
2019-05-17T07:19:07.564Z,11.03
2019-05-17T07:21:35.691Z,12.43
2019-05-17T07:24:03.962Z,12.27
2019-05-17T07:26:32.193Z,10.27
2019-05-17T07:29:00.326Z,11.83
2019-05-17T07:31:29.796Z,9.10
2019-05-17T07:33:59.821Z,6.10
2019-05-17T07:36:30.479Z,8.90
2019-05-17T07:38:57.837Z,6.83
2019-05-17T07:41:26.028Z,8.10
2019-05-17T07:43:54.136Z,7.67
2019-05-17T07:46:22.336Z,9.63
2019-05-17T07:48:50.498Z,10.77
2019-05-17T07:51:19.475Z,10.87
2019-05-17T07:53:49.540Z,9.10
2019-05-17T07:56:19.996Z,9.67
2019-05-17T07:58:49.508Z,11.47
2019-05-17T08:01:17.584Z,8.10
2019-05-17T08:03:45.690Z,12.80
2019-05-17T08:06:13.793Z,8.27
2019-05-17T08:08:41.928Z,10.13
2019-05-17T08:11:10.585Z,8.63
2019-05-17T08:13:39.880Z,10.73
2019-05-17T08:16:10.128Z,10.47
2019-05-17T08:18:40.096Z,9.47
2019-05-17T08:21:10.155Z,6.97
2019-05-17T08:23:40.046Z,5.30
2019-05-17T08:26:10.489Z,8.30
2019-05-17T08:28:40.216Z,6.13
2019-05-17T08:31:09.761Z,11.30
2019-05-17T08:33:37.508Z,8.20
2019-05-17T08:36:05.641Z,6.33
2019-05-17T08:38:33.749Z,8.83
2019-05-17T08:41:01.894Z,7.83
2019-05-17T08:43:39.545Z,8.57
2019-05-17T08:46:02.112Z,8.47
2019-05-17T08:48:30.476Z,7.03
2019-05-17T08:51:00.132Z,5.07
2019-05-17T08:53:30.444Z,5.50
2019-05-17T08:56:00.742Z,4.77
2019-05-17T08:58:29.748Z,6.33
2019-05-17T09:01:00.233Z,5.00
2019-05-17T09:03:30.153Z,7.40
2019-05-17T09:06:01.465Z,4.03
2019-05-17T09:08:29.746Z,5.27
2019-05-17T09:11:00.080Z,5.00
2019-05-17T09:13:27.216Z,5.13
2019-05-17T09:15:55.325Z,6.03
2019-05-17T09:18:23.461Z,5.50
2019-05-17T09:20:51.857Z,3.63
2019-05-17T09:23:19.989Z,4.00
2019-05-17T09:25:50.058Z,4.03
2019-05-17T09:28:20.319Z,2.77
2019-05-17T09:30:50.538Z,2.57
2019-05-17T09:33:19.212Z,3.93
2019-05-17T09:35:49.795Z,2.47
2019-05-17T09:38:17.321Z,2.50
2019-05-17T09:40:45.737Z,2.47
2019-05-17T09:43:15.033Z,2.20
2019-05-17T09:45:43.721Z,2.17
2019-05-17T09:48:11.968Z,2.03
2019-05-17T09:50:40.227Z,3.20
2019-05-17T09:53:10.784Z,1.80
2019-05-17T09:55:39.737Z,3.97
2019-05-17T09:58:09.910Z,3.27
2019-05-17T10:00:38.335Z,2.87
2019-05-17T10:03:06.482Z,3.23
2019-05-17T10:05:35.275Z,3.93
2019-05-17T10:08:03.538Z,5.23
2019-05-17T10:10:31.652Z,3.77
2019-05-17T10:13:00.305Z,4.03
2019-05-17T10:15:30.096Z,3.00
2019-05-17T10:18:00.658Z,2.10
2019-05-17T10:20:29.284Z,2.73
2019-05-17T10:22:59.657Z,3.67
2019-05-17T10:25:29.434Z,3.17
2019-05-17T10:27:57.324Z,5.27
2019-05-17T10:30:25.515Z,2.50
2019-05-17T10:32:53.633Z,2.90
2019-05-17T10:35:21.836Z,2.47
2019-05-17T10:37:50.689Z,2.10
2019-05-17T10:40:20.808Z,2.03
2019-05-17T10:42:49.995Z,3.73
2019-05-17T10:45:19.849Z,1.80
2019-05-17T10:47:50.335Z,2.13
2019-05-17T10:50:20.549Z,2.33
2019-05-17T10:52:49.015Z,3.00
2019-05-17T10:55:20.396Z,1.90
2019-05-17T10:57:49.983Z,2.80
2019-05-17T11:00:19.724Z,2.13
2019-05-17T11:02:50.315Z,2.93
2019-05-17T11:05:20.129Z,2.70
2019-05-17T11:07:49.801Z,4.03
2019-05-17T11:10:19.453Z,2.83
2019-05-17T11:12:47.732Z,2.57
2019-05-17T11:15:15.910Z,2.67
2019-05-17T11:17:44.036Z,2.90
2019-05-17T11:20:12.225Z,2.70
2019-05-17T11:22:40.361Z,3.53
2019-05-17T11:25:08.568Z,2.73
2019-05-17T11:27:36.813Z,3.10
2019-05-17T11:30:05.393Z,4.00
2019-05-17T11:32:33.837Z,4.90
2019-05-17T11:35:01.949Z,5.63
2019-05-17T11:37:30.173Z,3.30
2019-05-17T11:39:58.300Z,3.30
2019-05-17T11:42:26.522Z,3.33
2019-05-17T11:44:54.714Z,3.17
2019-05-17T11:47:22.859Z,3.30
2019-05-17T11:49:50.962Z,5.17
2019-05-17T11:52:19.073Z,4.33
2019-05-17T11:54:47.294Z,3.70
2019-05-17T11:57:15.452Z,2.77
2019-05-17T11:59:43.586Z,3.30
2019-05-17T12:02:11.769Z,4.10
2019-05-17T12:04:39.982Z,4.77
2019-05-17T12:07:08.084Z,3.17
2019-05-17T12:09:37.841Z,3.50
2019-05-17T12:12:06.481Z,4.33
2019-05-17T12:14:34.608Z,5.53
2019-05-17T12:17:02.718Z,4.93
2019-05-17T12:19:30.895Z,5.27
2019-05-17T12:21:59.069Z,6.17
2019-05-17T12:24:27.175Z,4.50
2019-05-17T12:26:55.316Z,4.90
2019-05-17T12:29:23.415Z,4.33
2019-05-17T12:31:51.549Z,5.23
2019-05-17T12:34:19.652Z,5.00
2019-05-17T12:36:47.774Z,5.00
2019-05-17T12:39:15.884Z,5.10
2019-05-17T12:41:44.401Z,4.37
2019-05-17T12:44:12.553Z,5.40
2019-05-17T12:46:40.727Z,6.57
2019-05-17T12:49:08.937Z,8.43
2019-05-17T12:51:37.137Z,5.60
2019-05-17T12:54:05.338Z,6.60
2019-05-17T12:56:33.506Z,8.23
2019-05-17T12:59:01.642Z,6.30
2019-05-17T13:01:29.901Z,8.83
2019-05-17T13:03:58.037Z,9.63
2019-05-17T13:06:26.222Z,8.27
2019-05-17T13:08:54.612Z,9.27
2019-05-17T13:11:22.735Z,6.60
2019-05-17T13:13:50.855Z,8.93
2019-05-17T13:16:19.450Z,8.47
2019-05-17T13:18:47.697Z,11.33
2019-05-17T13:21:15.817Z,10.27
2019-05-17T13:23:43.920Z,9.20
2019-05-17T13:26:12.065Z,9.43
2019-05-17T13:28:40.172Z,10.10
2019-05-17T13:31:08.311Z,10.97
2019-05-17T13:33:36.416Z,13.13
2019-05-17T13:36:04.923Z,12.33
2019-05-17T13:38:33.050Z,12.17
2019-05-17T13:41:01.193Z,13.20
2019-05-17T13:43:29.325Z,13.07
2019-05-17T13:45:57.518Z,11.90
2019-05-17T13:48:25.728Z,12.37
2019-05-17T13:50:53.930Z,17.13
2019-05-17T13:53:22.464Z,13.57
2019-05-17T13:55:50.597Z,14.47
2019-05-17T13:58:18.715Z,12.50
2019-05-17T14:00:46.875Z,15.17
2019-05-17T14:03:14.997Z,13.67
2019-05-17T14:05:43.425Z,13.63
2019-05-17T14:08:11.647Z,14.63
2019-05-17T14:10:39.764Z,17.00
2019-05-17T14:13:07.901Z,15.30
2019-05-17T14:15:36.021Z,14.27
2019-05-17T14:18:04.468Z,18.07
2019-05-17T14:20:32.577Z,16.37
2019-05-17T14:23:00.712Z,20.23
2019-05-17T14:25:28.917Z,18.97
2019-05-17T14:27:57.725Z,19.93
2019-05-17T14:30:26.126Z,17.57
2019-05-17T14:32:54.258Z,17.40
2019-05-17T14:35:22.382Z,20.17
2019-05-17T14:37:50.513Z,19.27
2019-05-17T14:40:18.713Z,20.33
2019-05-17T14:42:46.924Z,21.60
2019-05-17T14:45:15.217Z,19.70
2019-05-17T14:47:43.371Z,17.20
2019-05-17T14:50:11.598Z,18.53
2019-05-17T14:52:40.104Z,20.70
2019-05-17T14:55:08.379Z,19.60
2019-05-17T14:57:36.586Z,20.63
2019-05-17T15:00:05.550Z,19.63
2019-05-17T15:02:33.925Z,18.47
2019-05-17T15:05:02.832Z,17.27
2019-05-17T15:07:31.494Z,20.47
2019-05-17T15:09:59.699Z,20.37
2019-05-17T15:12:29.013Z,26.60
2019-05-17T15:14:57.660Z,20.37
2019-05-17T15:17:25.862Z,19.83
2019-05-17T15:19:54.097Z,22.50
2019-05-17T15:22:22.279Z,21.37
2019-05-17T15:24:50.442Z,22.90
2019-05-17T15:27:18.627Z,23.07
2019-05-17T15:29:46.769Z,18.83
2019-05-17T15:32:14.948Z,21.03
2019-05-17T15:34:43.173Z,20.17
2019-05-17T15:37:11.508Z,22.30
2019-05-17T15:39:39.770Z,19.80
2019-05-17T15:42:07.975Z,21.93
2019-05-17T15:44:36.092Z,21.03
2019-05-17T15:47:04.299Z,22.47
2019-05-17T15:49:32.412Z,22.77
2019-05-17T15:52:00.552Z,24.43
2019-05-17T15:54:28.672Z,23.80
2019-05-17T15:56:56.837Z,25.43
2019-05-17T15:59:24.962Z,25.10
2019-05-17T16:01:53.124Z,28.53
2019-05-17T16:04:21.313Z,25.63
2019-05-17T16:06:49.477Z,29.13
2019-05-17T16:09:17.669Z,25.37
2019-05-17T16:11:45.820Z,27.63
2019-05-17T16:14:13.939Z,29.43
2019-05-17T16:16:42.058Z,28.00
2019-05-17T16:19:10.257Z,27.90
2019-05-17T16:21:38.376Z,25.97
2019-05-17T16:24:06.524Z,27.80
2019-05-17T16:26:34.643Z,26.37
2019-05-17T16:29:02.990Z,32.30
2019-05-17T16:31:31.113Z,26.07
2019-05-17T16:33:59.235Z,25.17
2019-05-17T16:36:27.360Z,26.10
2019-05-17T16:38:55.495Z,28.67
2019-05-17T16:41:23.604Z,28.40
2019-05-17T16:43:51.744Z,30.70
2019-05-17T16:46:19.937Z,30.47
2019-05-17T16:48:48.076Z,33.07
2019-05-17T16:51:16.217Z,31.80
2019-05-17T16:53:44.393Z,31.23
2019-05-17T16:56:12.554Z,36.13
2019-05-17T16:58:40.708Z,38.47
2019-05-17T17:01:08.941Z,54.50
2019-05-17T17:03:44.414Z,37.10
2019-05-17T17:06:10.338Z,55.43
2019-05-17T17:08:37.302Z,45.10
2019-05-17T17:11:05.553Z,43.90
2019-05-17T17:13:33.767Z,37.33
2019-05-17T17:16:02.138Z,37.37
2019-05-17T17:18:30.681Z,39.37
2019-05-17T17:20:58.814Z,40.37
2019-05-17T17:23:26.958Z,40.13
2019-05-17T17:25:55.106Z,40.00
2019-05-17T17:28:25.465Z,41.47
2019-05-17T17:30:53.305Z,44.47
2019-05-17T17:33:21.764Z,44.30
2019-05-17T17:35:49.905Z,42.90
2019-05-17T17:38:18.028Z,44.27
2019-05-17T17:40:46.220Z,49.33
2019-05-17T17:43:16.040Z,48.00
2019-05-17T17:45:44.228Z,48.37
2019-05-17T17:48:12.688Z,47.57
2019-05-17T17:50:40.888Z,48.67
2019-05-17T17:53:09.091Z,49.10
2019-05-17T17:55:37.201Z,46.27
2019-05-17T17:58:05.407Z,45.83
2019-05-17T18:00:33.606Z,49.83
2019-05-17T18:03:01.739Z,50.30
2019-05-17T18:05:29.862Z,48.87
2019-05-17T18:07:58.064Z,49.63
2019-05-17T18:10:33.463Z,53.17
2019-05-17T18:13:01.800Z,51.83
2019-05-17T18:15:31.468Z,47.33
2019-05-17T18:17:59.860Z,44.73
2019-05-17T18:20:28.013Z,49.63
2019-05-17T18:22:56.193Z,50.50
2019-05-17T18:25:24.324Z,49.73
2019-05-17T18:27:52.443Z,48.70
2019-05-17T18:30:20.649Z,47.77
2019-05-17T18:32:49.064Z,50.30
2019-05-17T18:35:17.259Z,52.47
2019-05-17T18:37:45.371Z,50.97
2019-05-17T18:40:13.513Z,51.67
2019-05-17T18:42:41.642Z,49.73
2019-05-17T18:45:09.856Z,48.40
2019-05-17T18:47:38.038Z,52.00
2019-05-17T18:50:06.521Z,50.43
2019-05-17T18:52:34.656Z,53.20
2019-05-17T18:55:03.560Z,56.67
2019-05-17T18:57:31.724Z,53.73
2019-05-17T18:59:59.909Z,56.67
2019-05-17T19:02:28.075Z,53.40
2019-05-17T19:04:56.247Z,52.87
2019-05-17T19:07:24.488Z,52.93
2019-05-17T19:09:52.977Z,53.30
2019-05-17T19:12:21.132Z,55.87
2019-05-17T19:14:49.312Z,57.90
2019-05-17T19:17:17.552Z,55.03
2019-05-17T19:19:45.664Z,55.80
2019-05-17T19:22:13.796Z,58.97
2019-05-17T19:24:41.907Z,57.60
2019-05-17T19:27:10.027Z,59.40
2019-05-17T19:29:38.169Z,60.70
2019-05-17T19:32:06.292Z,59.47
2019-05-17T19:34:34.423Z,63.27
2019-05-17T19:37:02.921Z,64.13
2019-05-17T19:39:31.212Z,64.40
2019-05-17T19:41:59.325Z,67.63
2019-05-17T19:44:27.459Z,67.00
2019-05-17T19:46:55.572Z,74.00
2019-05-17T19:49:23.689Z,72.27
2019-05-17T19:51:51.829Z,72.43
2019-05-17T19:54:19.943Z,87.53
2019-05-17T19:56:48.356Z,86.80
2019-05-17T19:59:16.468Z,89.07
2019-05-17T20:01:44.906Z,85.77
2019-05-17T20:04:13.018Z,101.50
2019-05-17T20:06:41.153Z,105.40
2019-05-17T20:09:09.308Z,91.07
2019-05-17T20:11:37.455Z,94.17
2019-05-17T20:14:05.708Z,121.53
2019-05-17T20:16:33.850Z,118.77
2019-05-17T20:19:02.045Z,117.10
2019-05-17T20:21:30.185Z,129.90
2019-05-17T20:23:58.375Z,203.00
2019-05-17T20:26:26.507Z,171.30
2019-05-17T20:28:54.645Z,127.90
2019-05-17T20:31:23.086Z,174.33
2019-05-17T20:33:51.220Z,204.83
2019-05-17T20:36:19.408Z,136.43
2019-05-17T20:38:47.539Z,131.57
2019-05-17T20:41:15.660Z,135.87
2019-05-17T20:43:43.810Z,191.97
2019-05-17T20:46:12.330Z,135.37
2019-05-17T20:48:40.460Z,133.77
2019-05-17T20:51:08.579Z,144.67
2019-05-17T20:53:36.714Z,106.20
2019-05-17T20:56:04.833Z,244.30
2019-05-17T20:58:32.975Z,117.30
2019-05-17T21:01:01.089Z,141.07
2019-05-17T21:03:29.230Z,132.03
2019-05-17T21:05:57.348Z,126.87
2019-05-17T21:08:26.847Z,141.73
2019-05-17T21:10:55.153Z,122.93
2019-05-17T21:13:23.295Z,108.90
2019-05-17T21:15:51.408Z,110.63
2019-05-17T21:18:19.529Z,117.97
2019-05-17T21:20:47.668Z,132.93
2019-05-17T21:23:15.784Z,126.67
2019-05-17T21:25:43.991Z,99.83
2019-05-17T21:28:12.103Z,77.73
2019-05-17T21:30:40.240Z,99.57
2019-05-17T21:33:08.343Z,92.23
2019-05-17T21:35:36.485Z,105.80
2019-05-17T21:38:04.591Z,225.47
2019-05-17T21:40:33.040Z,117.93
2019-05-17T21:43:01.165Z,192.27
2019-05-17T21:45:29.352Z,192.20
2019-05-17T21:47:57.504Z,184.23
2019-05-17T21:50:25.619Z,146.67
2019-05-17T21:52:53.754Z,152.97
2019-05-17T21:55:21.874Z,211.57
2019-05-17T21:57:50.027Z,226.77
2019-05-17T22:00:33.902Z,177.40
2019-05-17T22:03:02.040Z,234.87
2019-05-17T22:05:30.164Z,212.20
2019-05-17T22:07:58.272Z,246.17
2019-05-17T22:10:26.500Z,253.47
2019-05-17T22:12:54.621Z,151.60
2019-05-17T22:15:22.760Z,93.07
2019-05-17T22:17:50.930Z,133.17
2019-05-17T22:20:19.363Z,165.37
2019-05-17T22:22:47.491Z,201.17
2019-05-17T22:25:15.626Z,151.73
2019-05-17T22:27:43.736Z,236.47
2019-05-17T22:30:11.956Z,102.77
2019-05-17T22:32:40.065Z,111.27
2019-05-17T22:35:08.256Z,107.17
2019-05-17T22:37:36.490Z,149.20
2019-05-17T22:40:06.244Z,108.90
2019-05-17T22:42:34.379Z,217.33
2019-05-17T22:45:02.501Z,195.73
2019-05-17T22:47:30.649Z,138.13
2019-05-17T22:49:58.768Z,174.87
2019-05-17T22:52:27.254Z,307.93
2019-05-17T22:54:55.451Z,214.30
2019-05-17T22:57:23.572Z,354.40
2019-05-17T22:59:52.460Z,289.60
2019-05-17T23:02:20.605Z,313.03
2019-05-17T23:04:49.131Z,175.93
2019-05-17T23:07:17.245Z,232.43
2019-05-17T23:09:45.460Z,167.40
2019-05-17T23:12:14.487Z,119.93
2019-05-17T23:14:42.625Z,126.73
2019-05-17T23:17:10.746Z,151.47
2019-05-17T23:19:38.891Z,132.97
2019-05-17T23:22:07.010Z,115.00
2019-05-17T23:24:35.432Z,116.73
2019-05-17T23:27:03.558Z,133.50
2019-05-17T23:29:34.620Z,108.83
2019-05-17T23:32:02.745Z,92.03
2019-05-17T23:34:30.942Z,82.90
2019-05-17T23:36:59.067Z,180.13
2019-05-17T23:39:27.195Z,59.17
2019-05-17T23:41:55.332Z,65.60
2019-05-17T23:44:23.519Z,66.80
2019-05-17T23:47:04.767Z,34.37
2019-05-17T23:49:21.561Z,40.70
2019-05-17T23:51:49.703Z,65.17
2019-05-17T23:54:17.812Z,29.03
2019-05-17T23:56:45.923Z,26.67
2019-05-17T23:59:14.056Z,35.20
